Watkins, IA (52354)

9:59 PM CST on February 13, 2016 (GMT -0600)
South West Btown | | Change Station
CLOSE
Current Station
Personal Weather Station
Location: Blairstown, IA
Elevation: 866 ft
Nearby Weather Stations
Active Advisory: Winter Weather Advisory

Elev 866 ft 41.91 °N, 92.09 °W | Updated 48 seconds ago

Mostly Cloudy
Mostly Cloudy
16.2 °F
Feels Like 5 °F
N
8.5
Wind Variable Wind from SE
Gusts 11.0 mph

Today
High -- | Low -- °F
--% Chance of Precip.
Yesterday
High -- | Low -- °F
Precip. -- in
Pressure 30.43 in
Visibility 10.0 miles
Clouds Overcast 7000 ft
Windchill 5 °F
Dew Point 1 °F
Humidity 51%
Rainfall 0.00 in
Snow Depth Not available.
7:07 AM 5:38 PM
Waxing Crescent, 37% visible
METAR KCID 140352Z 13008KT 10SM OVC070 M09/M17 A3038 RMK AO2 SLP305 T10891172
Pressure 30.43 in
Visibility 10.0 miles
Clouds Overcast 7000 ft
Windchill 5 °F
Dew Point 1 °F
Humidity 51%
Rainfall 0.00 in
Snow Depth Not available.
7:07 AM 5:38 PM
Waxing Crescent, 37% visible
METAR KCID 140352Z 13008KT 10SM OVC070 M09/M17 A3038 RMK AO2 SLP305 T10891172

10-Day Weather Forecast

Almanac

Astronomy

Feb. 13, 2016 Rise Set
Actual Time
Civil Twilight
Nautical Twilight
Astronomical Twilight
Moon
Length of Visible Light
Length of Day
Tomorrow will be .
, % of the Moon is Illuminated

Today's Extremes

State Highs State Lows

Community

WunderPhotos

Upload Photos

1,892,738 photos uploaded!

WunderBlog® & News

Nearby

Air Quality

  Air Quality AQ Index Pollutant
Not available.

Snow Depth

Station Depth Elevation

Earthquake Activity

City Distance Mag. Time & Date
Minimum magnitude displayed is 2.5.

Coastal Water Temperatures

Place Temperature

Stations

Nearby Weather Stations

Station Location Temp. Windchill Dew Point Humidity Wind Precip. Elev Updated Type
                   

Watches & Warnings

Winter Weather Advisory
Issued: 7:52 PM CST Feb. 13, 2016 – National Weather Service

... Winter Weather Advisory now in effect from midnight tonight to
6 PM CST Sunday...

* timing... overnight and continuing through Sunday.

* Snow accumulations... 3 to 5 inches.

* Wind... southeast 5 to 15 mph with gusts up to 25 mph overnight
and much of Sunday morning.

* Visibilities... less than a mile in the heavier snow at times.

* Impacts... snow covered and hazardous roads and low visibility
in heavier snowfall.

Precautionary/preparedness actions...

A Winter Weather Advisory for snow means that periods of snow
will cause travel difficulties. Be prepared for slick... snow
covered roads and limited visibilities... and be careful while
driving.